createdAt,value
2018-02-22T00:01:08.916Z,67.03
2018-02-22T00:03:37.285Z,67.25
2018-02-22T00:06:05.612Z,67.36
2018-02-22T00:08:33.935Z,66.83
2018-02-22T00:11:02.397Z,66.67
2018-02-22T00:13:30.742Z,67.34
2018-02-22T00:15:59.080Z,67.24
2018-02-22T00:18:27.432Z,67.49
2018-02-22T00:20:55.748Z,67.61
2018-02-22T00:23:24.086Z,67.20
2018-02-22T00:25:52.437Z,67.26
2018-02-22T00:28:20.778Z,67.30
2018-02-22T00:30:49.080Z,68.27
2018-02-22T00:33:18.685Z,68.32
2018-02-22T00:35:47.005Z,68.92
2018-02-22T00:38:15.363Z,68.79
2018-02-22T00:40:43.732Z,68.94
2018-02-22T00:43:12.060Z,68.50
2018-02-22T00:45:40.387Z,68.82
2018-02-22T00:48:08.744Z,68.63
2018-02-22T00:50:37.066Z,68.65
2018-02-22T00:53:05.387Z,69.05
2018-02-22T00:55:33.835Z,68.17
2018-02-22T00:58:02.971Z,67.91
2018-02-22T01:00:32.049Z,68.30
2018-02-22T01:03:00.376Z,68.23
2018-02-22T01:05:28.710Z,68.32
2018-02-22T01:07:57.033Z,68.30
2018-02-22T01:10:25.377Z,68.79
2018-02-22T01:12:53.688Z,68.82
2018-02-22T01:15:22.776Z,68.90
2018-02-22T01:17:52.238Z,69.12
2018-02-22T01:20:20.567Z,68.85
2018-02-22T01:22:48.907Z,68.93
2018-02-22T01:25:17.240Z,68.75
2018-02-22T01:27:45.557Z,68.85
2018-02-22T01:30:13.865Z,68.99
2018-02-22T01:32:42.981Z,69.27
2018-02-22T01:35:11.331Z,69.22
2018-02-22T01:37:40.414Z,69.11
2018-02-22T01:40:09.037Z,68.89
2018-02-22T01:42:37.357Z,68.54
2018-02-22T01:45:05.680Z,68.78
2018-02-22T01:47:34.040Z,68.68
2018-02-22T01:50:02.365Z,69.13
2018-02-22T01:52:30.689Z,69.05
2018-02-22T01:54:59.052Z,69.85
2018-02-22T01:57:27.361Z,69.27
2018-02-22T01:59:55.699Z,69.40
2018-02-22T02:02:24.223Z,69.49
2018-02-22T02:04:52.537Z,69.60
2018-02-22T02:07:20.873Z,69.52
2018-02-22T02:09:49.220Z,69.07
2018-02-22T02:12:17.548Z,69.03
2018-02-22T02:14:45.875Z,69.33
2018-02-22T02:17:14.208Z,69.63
2018-02-22T02:19:43.309Z,69.49
2018-02-22T02:22:12.421Z,70.07
2018-02-22T02:24:40.958Z,69.41
2018-02-22T02:27:09.296Z,70.33
2018-02-22T02:29:37.612Z,69.59
2018-02-22T02:32:05.943Z,70.26
2018-02-22T02:34:34.276Z,69.66
2018-02-22T02:37:02.586Z,70.71
2018-02-22T02:39:30.971Z,69.97
2018-02-22T02:41:59.280Z,70.05
2018-02-22T02:44:27.635Z,70.12
2018-02-22T02:46:56.311Z,70.37
2018-02-22T02:49:24.652Z,70.14
2018-02-22T02:51:52.960Z,70.99
2018-02-22T02:54:21.306Z,70.58
2018-02-22T02:56:49.617Z,70.36
2018-02-22T02:59:17.946Z,70.19
2018-02-22T03:01:46.313Z,70.02
2018-02-22T03:04:14.642Z,70.73
2018-02-22T03:06:42.988Z,70.37
2018-02-22T03:09:11.614Z,69.76
2018-02-22T03:11:39.949Z,70.06
2018-02-22T03:14:08.265Z,69.72
2018-02-22T03:16:37.361Z,69.86
2018-02-22T03:19:06.473Z,69.46
2018-02-22T03:21:34.817Z,69.10
2018-02-22T03:24:03.137Z,69.02
2018-02-22T03:26:31.455Z,68.92
2018-02-22T03:28:59.788Z,69.38
2018-02-22T03:31:28.349Z,69.25
2018-02-22T03:33:57.424Z,68.91
2018-02-22T03:36:25.749Z,69.29
2018-02-22T03:38:54.099Z,68.56
2018-02-22T03:41:23.204Z,69.11
2018-02-22T03:43:52.282Z,68.73
2018-02-22T03:46:20.646Z,68.70
2018-02-22T03:48:48.962Z,68.94
2018-02-22T03:51:17.277Z,68.31
2018-02-22T03:53:46.037Z,68.09
2018-02-22T03:56:14.349Z,68.43
2018-02-22T03:58:42.677Z,68.03
2018-02-22T04:01:11.052Z,67.91
2018-02-22T04:03:40.138Z,68.64
2018-02-22T04:06:08.466Z,68.04
2018-02-22T04:08:36.799Z,67.80
2018-02-22T04:11:05.120Z,68.00
2018-02-22T04:13:33.472Z,68.73
2018-02-22T04:16:03.054Z,68.51
2018-02-22T04:18:31.390Z,68.39
2018-02-22T04:20:59.696Z,68.52
2018-02-22T04:23:28.811Z,68.30
2018-02-22T04:25:57.936Z,68.80
2018-02-22T04:28:26.263Z,68.84
2018-02-22T04:30:54.610Z,68.54
2018-02-22T04:33:22.925Z,68.81
2018-02-22T04:35:51.228Z,68.84
2018-02-22T04:38:20.833Z,68.80
2018-02-22T04:40:49.147Z,68.70
2018-02-22T04:43:17.495Z,68.05
2018-02-22T04:45:46.628Z,68.54
2018-02-22T04:48:14.938Z,68.11
2018-02-22T04:50:43.257Z,67.88
2018-02-22T04:53:11.596Z,67.96
2018-02-22T04:55:39.906Z,68.47
2018-02-22T04:58:09.008Z,68.15
2018-02-22T05:00:38.602Z,68.74
2018-02-22T05:03:07.806Z,68.60
2018-02-22T05:05:36.983Z,68.29
2018-02-22T05:08:05.349Z,69.06
2018-02-22T05:10:33.747Z,68.39
2018-02-22T05:13:02.049Z,68.31
2018-02-22T05:15:31.142Z,67.88
2018-02-22T05:17:59.437Z,68.03
2018-02-22T05:20:27.751Z,67.97
2018-02-22T05:22:56.448Z,67.92
2018-02-22T05:25:24.756Z,67.51
2018-02-22T05:27:53.865Z,68.90
2018-02-22T05:30:22.997Z,69.21
2018-02-22T05:32:51.315Z,69.16
2018-02-22T05:35:19.619Z,68.65
2018-02-22T05:37:48.257Z,68.59
2018-02-22T05:40:16.595Z,71.89
2018-02-22T05:42:44.929Z,68.97
2018-02-22T05:45:13.785Z,68.85
2018-02-22T05:47:42.111Z,68.98
2018-02-22T05:50:10.401Z,69.01
2018-02-22T05:52:39.508Z,68.73
2018-02-22T05:55:08.566Z,69.24
2018-02-22T05:57:36.897Z,69.02
2018-02-22T06:00:05.253Z,68.85
2018-02-22T06:02:33.589Z,68.96
2018-02-22T06:05:01.921Z,68.68
2018-02-22T06:07:30.564Z,68.65
2018-02-22T06:09:58.874Z,68.71
2018-02-22T06:12:27.962Z,69.36
2018-02-22T06:14:57.098Z,69.45
2018-02-22T06:17:25.418Z,69.17
2018-02-22T06:19:53.740Z,69.45
2018-02-22T06:22:22.086Z,68.81
2018-02-22T06:24:50.398Z,68.78
2018-02-22T06:27:18.746Z,68.57
2018-02-22T06:29:47.838Z,68.59
2018-02-22T06:32:16.201Z,68.85
2018-02-22T06:34:44.518Z,68.73
2018-02-22T06:37:12.922Z,69.06
2018-02-22T06:39:41.228Z,69.25
2018-02-22T06:42:09.535Z,70.09
2018-02-22T06:44:38.648Z,70.29
2018-02-22T06:47:07.730Z,69.99
2018-02-22T06:49:36.823Z,69.54
2018-02-22T06:52:06.418Z,69.03
2018-02-22T06:54:34.954Z,68.01
2018-02-22T06:57:03.847Z,67.58
2018-02-22T06:59:32.336Z,66.22
2018-02-22T07:02:00.656Z,64.86
2018-02-22T07:04:28.984Z,64.73
2018-02-22T07:06:57.334Z,63.53
2018-02-22T07:09:26.397Z,62.75
2018-02-22T07:11:55.081Z,61.11
2018-02-22T07:14:24.837Z,58.04
2018-02-22T07:16:53.267Z,57.69
2018-02-22T07:19:21.563Z,58.63
2018-02-22T07:21:49.921Z,60.34
2018-02-22T07:24:18.234Z,61.93
2018-02-22T07:26:47.345Z,62.33
2018-02-22T07:29:15.726Z,63.13
2018-02-22T07:31:44.892Z,63.28
2018-02-22T07:34:13.218Z,63.49
2018-02-22T07:36:41.760Z,63.91
2018-02-22T07:39:10.057Z,64.99
2018-02-22T07:41:38.383Z,65.64
2018-02-22T07:44:06.707Z,65.64
2018-02-22T07:46:35.037Z,65.39
2018-02-22T07:49:03.369Z,64.54
2018-02-22T07:51:31.703Z,64.73
2018-02-22T07:54:00.793Z,64.82
2018-02-22T07:56:29.089Z,64.46
2018-02-22T07:58:57.500Z,63.56
2018-02-22T08:01:26.605Z,62.62
2018-02-22T08:03:54.929Z,62.58
2018-02-22T08:06:24.046Z,61.77
2018-02-22T08:08:52.347Z,61.18
2018-02-22T08:11:21.447Z,60.78
2018-02-22T08:13:50.564Z,59.90
2018-02-22T08:16:18.896Z,59.24
2018-02-22T08:18:47.235Z,57.83
2018-02-22T08:21:16.044Z,56.58
2018-02-22T08:23:44.341Z,55.29
2018-02-22T08:26:12.664Z,54.02
2018-02-22T08:28:41.009Z,51.75
2018-02-22T08:31:10.100Z,50.41
2018-02-22T08:33:39.181Z,50.01
2018-02-22T08:36:07.541Z,49.20
2018-02-22T08:38:35.870Z,48.09
2018-02-22T08:41:04.944Z,48.15
2018-02-22T08:43:33.673Z,47.67
2018-02-22T08:46:02.056Z,47.90
2018-02-22T08:48:30.382Z,48.19
2018-02-22T08:50:58.745Z,48.37
2018-02-22T08:53:27.091Z,48.76
2018-02-22T08:55:55.400Z,48.15
2018-02-22T08:58:23.763Z,48.32
2018-02-22T09:00:52.239Z,49.29
2018-02-22T09:03:20.554Z,48.57
2018-02-22T09:05:49.347Z,47.40
2018-02-22T09:08:17.669Z,44.50
2018-02-22T09:10:46.033Z,43.30
2018-02-22T09:13:15.126Z,42.79
2018-02-22T09:15:43.526Z,44.68
2018-02-22T09:18:11.832Z,45.94
2018-02-22T09:20:40.173Z,46.30
2018-02-22T09:23:08.497Z,45.93
2018-02-22T09:25:36.833Z,46.34
2018-02-22T09:28:05.544Z,46.33
2018-02-22T09:30:33.869Z,45.95
2018-02-22T09:33:02.967Z,46.83
2018-02-22T09:35:32.074Z,45.27
2018-02-22T09:38:01.156Z,45.32
2018-02-22T09:40:29.480Z,46.70
2018-02-22T09:42:57.905Z,45.88
2018-02-22T09:45:26.220Z,45.64
2018-02-22T09:47:54.532Z,45.87
2018-02-22T09:50:23.219Z,46.96
2018-02-22T09:52:51.672Z,47.60
2018-02-22T09:55:20.007Z,49.00
2018-02-22T09:57:48.347Z,50.32
2018-02-22T10:00:16.700Z,50.31
2018-02-22T10:02:45.038Z,50.43
2018-02-22T10:05:13.384Z,50.85
2018-02-22T10:07:41.724Z,49.98
2018-02-22T10:10:10.812Z,50.12
2018-02-22T10:12:40.193Z,49.90
2018-02-22T10:15:08.482Z,50.40
2018-02-22T10:17:36.811Z,50.31
2018-02-22T10:20:05.156Z,50.44
2018-02-22T10:22:34.229Z,49.78
2018-02-22T10:25:02.554Z,49.43
2018-02-22T10:27:31.136Z,49.07
2018-02-22T10:30:00.227Z,49.13
2018-02-22T10:32:28.553Z,48.66
2018-02-22T10:34:57.244Z,48.37
2018-02-22T10:37:25.541Z,48.15
2018-02-22T10:39:54.629Z,49.47
2018-02-22T10:42:23.783Z,48.32
2018-02-22T10:44:52.095Z,47.61
2018-02-22T10:47:20.399Z,47.18
2018-02-22T10:49:48.749Z,45.80
2018-02-22T10:52:17.078Z,46.81
2018-02-22T10:54:45.388Z,48.43
2018-02-22T10:57:13.983Z,48.14
2018-02-22T10:59:42.410Z,48.32
2018-02-22T11:02:16.412Z,47.24
2018-02-22T11:04:44.711Z,48.04
2018-02-22T11:07:13.032Z,48.04
2018-02-22T11:09:41.359Z,49.27
2018-02-22T11:12:09.680Z,49.81
2018-02-22T11:14:38.025Z,49.93
2018-02-22T11:17:06.880Z,50.93
2018-02-22T11:19:35.204Z,49.21
2018-02-22T11:22:03.524Z,49.47
2018-02-22T11:24:31.877Z,49.58
2018-02-22T11:27:00.204Z,49.80
2018-02-22T11:29:28.543Z,49.58
2018-02-22T11:31:56.880Z,49.35
2018-02-22T11:34:25.182Z,49.08
2018-02-22T11:36:53.500Z,47.78
2018-02-22T11:39:22.237Z,46.82
2018-02-22T11:41:50.571Z,45.34
2018-02-22T11:44:19.640Z,45.53
2018-02-22T11:46:48.001Z,45.03
2018-02-22T11:49:16.391Z,45.32
2018-02-22T11:51:44.750Z,44.02
2018-02-22T11:54:13.099Z,42.73
2018-02-22T11:56:42.162Z,44.38
2018-02-22T11:59:10.514Z,43.34
2018-02-22T12:01:39.331Z,45.10
2018-02-22T12:04:07.666Z,38.54
2018-02-22T12:06:35.994Z,33.86
2018-02-22T12:09:04.348Z,32.92
2018-02-22T12:11:32.684Z,32.01
2018-02-22T12:14:01.017Z,30.12
2018-02-22T12:16:29.363Z,29.42
2018-02-22T12:18:57.681Z,29.81
2018-02-22T12:21:25.998Z,29.89
2018-02-22T12:23:54.879Z,28.86
2018-02-22T12:26:23.220Z,28.93
2018-02-22T12:28:51.669Z,32.50
2018-02-22T12:31:20.018Z,32.79
2018-02-22T12:33:49.110Z,33.78
2018-02-22T12:36:18.227Z,35.23
2018-02-22T12:38:46.593Z,37.19
2018-02-22T12:41:14.916Z,37.49
2018-02-22T12:43:43.288Z,37.91
2018-02-22T12:46:12.248Z,38.39
2018-02-22T12:48:40.578Z,38.58
2018-02-22T12:51:08.930Z,39.39
2018-02-22T12:53:37.304Z,39.91
2018-02-22T12:56:05.721Z,40.04
2018-02-22T12:58:34.084Z,41.05
2018-02-22T13:01:02.440Z,43.50
2018-02-22T13:03:30.788Z,44.46
2018-02-22T13:05:59.107Z,45.50
2018-02-22T13:08:27.725Z,45.35
2018-02-22T13:10:56.153Z,45.29
2018-02-22T13:13:24.488Z,43.61
2018-02-22T13:15:52.857Z,41.79
2018-02-22T13:18:21.312Z,39.03
2018-02-22T13:20:49.628Z,37.70
2018-02-22T13:23:17.980Z,37.24
2018-02-22T13:25:46.312Z,33.18
2018-02-22T13:28:14.752Z,31.57
2018-02-22T13:30:43.256Z,31.42
2018-02-22T13:33:29.025Z,32.46
2018-02-22T13:35:57.489Z,34.36
2018-02-22T13:38:43.652Z,35.09
2018-02-22T13:41:12.027Z,33.34
2018-02-22T13:43:40.367Z,30.54
2018-02-22T13:46:08.758Z,28.95
2018-02-22T13:48:55.193Z,29.12
2018-02-22T13:51:23.552Z,34.25
2018-02-22T13:53:51.880Z,36.14
2018-02-22T13:56:37.958Z,35.76
2018-02-22T13:59:06.301Z,36.37
2018-02-22T14:01:52.444Z,37.13
2018-02-22T14:04:20.921Z,38.88
2018-02-22T14:06:49.301Z,39.63
2018-02-22T14:09:17.903Z,40.08
2018-02-22T14:11:46.249Z,40.31
2018-02-22T14:14:14.584Z,40.80
2018-02-22T14:16:42.990Z,41.81
2018-02-22T14:19:11.427Z,42.61
2018-02-22T14:21:39.751Z,42.84
2018-02-22T14:24:08.150Z,40.99
2018-02-22T14:26:36.515Z,39.05
2018-02-22T14:29:04.842Z,38.53
2018-02-22T14:31:33.289Z,38.66
2018-02-22T14:34:01.724Z,39.60
2018-02-22T14:36:30.076Z,41.30
2018-02-22T14:38:58.538Z,42.16
2018-02-22T14:41:27.699Z,42.62
2018-02-22T14:43:56.081Z,43.84
2018-02-22T14:46:24.503Z,45.23
2018-02-22T14:48:52.893Z,45.11
2018-02-22T14:51:21.293Z,45.83
2018-02-22T14:53:49.798Z,47.03
2018-02-22T14:56:18.169Z,47.22
2018-02-22T14:58:47.308Z,47.39
2018-02-22T15:01:15.686Z,47.68
2018-02-22T15:03:44.076Z,48.06
2018-02-22T15:06:12.428Z,48.24
2018-02-22T15:08:40.829Z,48.74
2018-02-22T15:11:09.194Z,49.62
2018-02-22T15:13:37.517Z,49.88
2018-02-22T15:16:07.288Z,49.31
2018-02-22T15:18:35.643Z,48.77
2018-02-22T15:21:05.453Z,48.67
2018-02-22T15:23:34.609Z,49.12
2018-02-22T15:26:02.975Z,50.07
2018-02-22T15:28:31.325Z,50.84
2018-02-22T15:30:59.693Z,51.10
2018-02-22T15:33:28.072Z,51.48
2018-02-22T15:35:57.172Z,51.81
2018-02-22T15:38:25.971Z,51.58
2018-02-22T15:40:54.338Z,51.68
2018-02-22T15:43:22.734Z,51.75
2018-02-22T15:45:51.182Z,52.01
2018-02-22T15:48:19.587Z,52.25
2018-02-22T15:50:47.929Z,52.03
2018-02-22T15:53:16.316Z,52.13
2018-02-22T15:55:45.472Z,52.48
2018-02-22T15:58:13.794Z,52.66
2018-02-22T16:00:43.024Z,52.52
2018-02-22T16:03:11.355Z,52.70
2018-02-22T16:05:39.723Z,53.29
2018-02-22T16:08:08.873Z,53.08
2018-02-22T16:10:37.207Z,53.03
2018-02-22T16:13:05.525Z,53.40
2018-02-22T16:15:33.860Z,53.62
2018-02-22T16:18:02.192Z,53.65
2018-02-22T16:20:30.568Z,53.42
2018-02-22T16:22:59.226Z,53.47
2018-02-22T16:25:27.571Z,53.59
2018-02-22T16:27:55.916Z,53.40
2018-02-22T16:30:24.280Z,53.53
2018-02-22T16:32:52.632Z,53.66
2018-02-22T16:35:20.972Z,54.22
2018-02-22T16:37:49.324Z,54.52
2018-02-22T16:40:17.700Z,54.48
2018-02-22T16:42:46.046Z,54.54
2018-02-22T16:45:14.488Z,54.69
2018-02-22T16:47:42.816Z,54.62
2018-02-22T16:50:11.964Z,55.17
2018-02-22T16:52:40.302Z,55.32
2018-02-22T16:55:09.430Z,55.41
2018-02-22T16:57:37.741Z,55.56
2018-02-22T17:00:06.084Z,55.42
2018-02-22T17:02:34.401Z,54.90
2018-02-22T17:05:02.753Z,55.14
2018-02-22T17:07:31.563Z,55.21
2018-02-22T17:09:59.896Z,55.83
2018-02-22T17:12:28.276Z,56.04
2018-02-22T17:14:56.678Z,56.22
2018-02-22T17:17:42.887Z,56.93
2018-02-22T17:20:11.235Z,57.38
2018-02-22T17:22:39.610Z,57.61
2018-02-22T17:25:07.952Z,57.74
2018-02-22T17:27:42.190Z,57.65
2018-02-22T17:30:16.759Z,57.40
2018-02-22T17:32:45.874Z,58.03
2018-02-22T17:35:19.651Z,58.49
2018-02-22T17:37:50.980Z,58.89
2018-02-22T17:40:19.526Z,59.14
2018-02-22T17:42:47.884Z,58.98
2018-02-22T17:45:16.624Z,59.60
2018-02-22T17:47:44.961Z,59.89
2018-02-22T17:50:13.334Z,59.83
2018-02-22T17:52:41.676Z,59.94
2018-02-22T17:55:10.002Z,59.87
2018-02-22T17:57:38.346Z,60.74
2018-02-22T18:00:06.745Z,60.89
2018-02-22T18:02:35.057Z,61.13
2018-02-22T18:05:04.148Z,61.39
2018-02-22T18:07:32.928Z,61.31
2018-02-22T18:10:01.297Z,60.81
2018-02-22T18:12:29.647Z,60.84
2018-02-22T18:14:58.008Z,60.89
2018-02-22T18:17:26.353Z,61.43
2018-02-22T18:19:54.759Z,61.41
2018-02-22T18:22:23.150Z,61.94
2018-02-22T18:24:51.495Z,63.16
2018-02-22T18:27:19.860Z,62.98
2018-02-22T18:29:48.983Z,62.52
2018-02-22T18:32:17.272Z,63.11
2018-02-22T18:34:45.619Z,62.74
2018-02-22T18:37:19.537Z,62.80
2018-02-22T18:39:48.609Z,62.63
2018-02-22T18:42:20.514Z,62.20
2018-02-22T18:44:54.476Z,61.90
2018-02-22T18:47:23.196Z,61.23
2018-02-22T18:49:51.538Z,60.19
2018-02-22T18:52:21.273Z,59.75
2018-02-22T18:54:49.602Z,59.32
2018-02-22T18:57:17.954Z,59.78
2018-02-22T18:59:47.037Z,59.17
2018-02-22T19:02:16.127Z,59.09
2018-02-22T19:04:45.230Z,59.15
2018-02-22T19:07:14.339Z,59.14
2018-02-22T19:09:43.012Z,59.11
2018-02-22T19:12:12.078Z,58.88
2018-02-22T19:14:40.633Z,59.12
2018-02-22T19:17:08.977Z,58.97
2018-02-22T19:19:38.065Z,58.88
2018-02-22T19:22:07.132Z,58.54
2018-02-22T19:24:35.468Z,59.40
2018-02-22T19:27:03.777Z,59.25
2018-02-22T19:29:32.214Z,59.48
2018-02-22T19:32:01.619Z,58.52
2018-02-22T19:34:29.930Z,58.63
2018-02-22T19:36:58.308Z,58.59
2018-02-22T19:39:26.650Z,59.43
2018-02-22T19:41:55.003Z,58.92
2018-02-22T19:44:23.347Z,59.37
2018-02-22T19:46:51.694Z,58.80
2018-02-22T19:49:20.024Z,58.77
2018-02-22T19:51:48.316Z,59.11
2018-02-22T19:54:16.880Z,58.32
2018-02-22T19:56:45.176Z,58.91
2018-02-22T19:59:13.499Z,59.26
2018-02-22T20:01:42.645Z,58.87
2018-02-22T20:04:10.971Z,58.40
2018-02-22T20:06:40.054Z,58.66
2018-02-22T20:09:09.674Z,58.83
2018-02-22T20:11:38.111Z,59.16
2018-02-22T20:14:06.596Z,59.54
2018-02-22T20:16:35.959Z,59.40
2018-02-22T20:19:04.297Z,60.28
2018-02-22T20:21:33.394Z,59.95
2018-02-22T20:24:02.501Z,59.94
2018-02-22T20:26:31.557Z,60.12
2018-02-22T20:29:00.556Z,60.21
2018-02-22T20:31:28.911Z,60.02
2018-02-22T20:33:57.236Z,60.78
2018-02-22T20:36:26.328Z,60.99
2018-02-22T20:38:55.489Z,60.85
2018-02-22T20:41:23.844Z,61.16
2018-02-22T20:43:52.192Z,60.78
2018-02-22T20:46:20.572Z,61.04
2018-02-22T20:48:49.116Z,61.42
2018-02-22T20:51:18.218Z,61.38
2018-02-22T20:53:46.564Z,61.21
2018-02-22T20:56:14.904Z,61.12
2018-02-22T20:58:43.236Z,61.59
2018-02-22T21:01:12.683Z,61.09
2018-02-22T21:03:41.237Z,61.21
2018-02-22T21:06:09.626Z,61.40
2018-02-22T21:08:37.990Z,61.64
2018-02-22T21:11:06.314Z,62.02
2018-02-22T21:13:35.396Z,62.27
2018-02-22T21:16:04.504Z,62.70
2018-02-22T21:18:33.612Z,62.56
2018-02-22T21:21:01.917Z,62.88
2018-02-22T21:23:30.677Z,62.67
2018-02-22T21:25:59.017Z,62.29
2018-02-22T21:28:27.340Z,61.52
2018-02-22T21:30:55.766Z,61.97
2018-02-22T21:33:24.909Z,61.95
2018-02-22T21:35:53.217Z,62.20
2018-02-22T21:38:21.633Z,62.51
2018-02-22T21:40:50.022Z,62.51
2018-02-22T21:43:18.361Z,63.10
2018-02-22T21:45:46.915Z,63.05
2018-02-22T21:48:15.226Z,63.07
2018-02-22T21:50:43.564Z,62.64
2018-02-22T21:53:11.916Z,62.47
2018-02-22T21:55:40.217Z,62.03
2018-02-22T21:58:09.355Z,62.24
2018-02-22T22:00:37.710Z,62.31
2018-02-22T22:03:06.033Z,63.52
2018-02-22T22:05:34.342Z,63.66
2018-02-22T22:08:03.740Z,63.60
2018-02-22T22:10:32.818Z,63.42
2018-02-22T22:13:01.132Z,63.06
2018-02-22T22:15:29.472Z,62.80
2018-02-22T22:17:57.848Z,63.40
2018-02-22T22:20:26.150Z,63.39
2018-02-22T22:22:55.279Z,63.45
2018-02-22T22:25:23.624Z,64.02
2018-02-22T22:27:52.731Z,64.00
2018-02-22T22:30:22.181Z,63.84
2018-02-22T22:32:50.565Z,63.94
2018-02-22T22:35:18.876Z,64.38
2018-02-22T22:37:47.220Z,64.45
2018-02-22T22:40:16.334Z,65.01
2018-02-22T22:42:44.712Z,64.75
2018-02-22T22:45:13.042Z,64.40
2018-02-22T22:47:41.369Z,64.82
2018-02-22T22:50:09.668Z,64.48
2018-02-22T22:52:39.260Z,65.14
2018-02-22T22:55:07.601Z,64.46
2018-02-22T22:57:35.940Z,64.82
2018-02-22T23:00:04.338Z,65.19
2018-02-22T23:02:32.726Z,65.40
2018-02-22T23:05:01.081Z,64.91
2018-02-22T23:07:29.468Z,65.24
2018-02-22T23:09:58.575Z,65.36
2018-02-22T23:12:27.103Z,65.43
2018-02-22T23:14:56.429Z,65.37
2018-02-22T23:17:24.723Z,65.55
2018-02-22T23:19:53.018Z,65.10
2018-02-22T23:22:21.395Z,65.81
2018-02-22T23:24:49.703Z,65.64
2018-02-22T23:27:18.024Z,65.95
2018-02-22T23:29:46.348Z,65.94
2018-02-22T23:32:14.667Z,66.04
2018-02-22T23:34:42.973Z,65.54
2018-02-22T23:37:12.216Z,66.05
2018-02-22T23:39:40.514Z,66.12
2018-02-22T23:45:10.152Z,66.20
2018-02-22T23:47:38.491Z,66.35
2018-02-22T23:50:06.788Z,66.21
2018-02-22T23:52:35.096Z,67.10
2018-02-22T23:55:03.701Z,66.50
2018-02-22T23:57:32.054Z,66.51
